Waterford, Ohio
Current Conditions -  °F | °C
As of 3:53 PM on Thursday 18 Dec 2014 (Local Time) from KPKB Reporting Station
Overcast Overcast  
Wind Chill: 29°   Ceiling: 2500
Heat Index: 29°   Visibility: 10mi
Dew Point: 20°   Wind: 0mph
Humidity: 69%   Direction: NA
Pressure: 30.23"   Gusts: NA
Location:  39.54°N, 81.64°W
Report Text: KPKB 182053Z AUTO 00000KT 10SM OVC025 M02/M07 A3023 RMK AO2 SLP246 T10171067 55008
Loading
Personal Weather Stations






























Interactive Weather Map New forecast layout! Learn more

10-Day Weather Forecast

Advertisements
Track Severe Weather on mobile